createdAt,value
2019-02-19T00:02:01.100Z,23.77
2019-02-19T00:04:33.019Z,15.77
2019-02-19T00:07:03.486Z,21.30
2019-02-19T00:09:33.943Z,31.47
2019-02-19T00:12:07.125Z,33.10
2019-02-19T00:14:39.291Z,26.53
2019-02-19T00:17:09.926Z,30.90
2019-02-19T00:19:40.381Z,16.03
2019-02-19T00:22:10.855Z,13.67
2019-02-19T00:24:41.269Z,27.33
2019-02-19T00:27:12.313Z,29.80
2019-02-19T00:29:46.700Z,12.23
2019-02-19T00:32:17.268Z,23.70
2019-02-19T00:34:47.806Z,20.27
2019-02-19T00:37:18.333Z,18.27
2019-02-19T00:39:48.793Z,16.07
2019-02-19T00:42:19.197Z,12.43
2019-02-19T00:44:50.483Z,15.47
2019-02-19T00:47:20.966Z,20.80
2019-02-19T00:49:51.495Z,15.87
2019-02-19T00:52:21.981Z,13.77
2019-02-19T00:54:52.585Z,15.03
2019-02-19T00:57:23.037Z,11.37
2019-02-19T00:59:53.539Z,16.77
2019-02-19T01:02:23.990Z,15.00
2019-02-19T01:04:54.628Z,14.90
2019-02-19T01:07:26.041Z,25.43
2019-02-19T01:09:56.611Z,14.43
2019-02-19T01:12:27.144Z,17.13
2019-02-19T01:14:57.699Z,21.93
2019-02-19T01:17:29.551Z,17.57
2019-02-19T01:20:00.278Z,23.93
2019-02-19T01:22:32.391Z,24.43
2019-02-19T01:25:02.899Z,20.73
2019-02-19T01:27:33.367Z,25.67
2019-02-19T01:30:04.729Z,21.90
2019-02-19T01:32:35.244Z,21.43
2019-02-19T01:35:07.346Z,26.10
2019-02-19T01:37:37.858Z,22.10
2019-02-19T01:40:14.430Z,32.42
2019-02-19T01:42:47.463Z,35.93
2019-02-19T01:45:20.297Z,34.50
2019-02-19T01:47:50.821Z,34.07
2019-02-19T01:50:22.901Z,23.60
2019-02-19T01:52:53.471Z,23.27
2019-02-19T01:55:23.945Z,30.40
2019-02-19T01:57:57.354Z,24.30
2019-02-19T02:00:29.425Z,39.20
2019-02-19T02:03:00.046Z,33.53
2019-02-19T02:05:30.468Z,37.40
2019-02-19T02:08:06.968Z,31.57
2019-02-19T02:10:37.380Z,20.17
2019-02-19T02:13:08.211Z,19.43
2019-02-19T02:15:42.723Z,38.83
2019-02-19T02:18:12.578Z,32.00
2019-02-19T02:20:43.049Z,32.60
2019-02-19T02:23:13.581Z,19.57
2019-02-19T02:25:44.113Z,24.07
2019-02-19T02:28:17.770Z,33.97
2019-02-19T02:30:48.236Z,43.40
2019-02-19T02:33:21.949Z,36.05
2019-02-19T02:35:53.918Z,40.00
2019-02-19T02:38:24.337Z,26.07
2019-02-19T02:40:56.618Z,24.87
2019-02-19T02:43:38.361Z,23.27
2019-02-19T02:46:08.921Z,32.43
2019-02-19T02:48:39.337Z,26.47
2019-02-19T02:51:09.968Z,33.00
2019-02-19T02:53:40.413Z,46.60
2019-02-19T02:56:10.942Z,42.13
2019-02-19T02:58:41.480Z,32.87
2019-02-19T03:01:12.111Z,40.30
2019-02-19T03:03:42.554Z,34.70
2019-02-19T03:06:29.895Z,36.10
2019-02-19T03:09:00.456Z,27.10
2019-02-19T03:11:30.982Z,29.57
2019-02-19T03:14:01.522Z,21.30
2019-02-19T03:16:34.946Z,32.73
2019-02-19T03:19:05.501Z,18.07
2019-02-19T03:21:38.363Z,31.17
2019-02-19T03:24:08.841Z,39.60
2019-02-19T03:26:39.276Z,30.47
2019-02-19T03:29:18.319Z,34.07
2019-02-19T03:31:48.904Z,39.07
2019-02-19T03:34:19.460Z,35.33
2019-02-19T03:36:49.859Z,38.00
2019-02-19T03:39:21.331Z,39.77
2019-02-19T03:41:51.803Z,39.33
2019-02-19T03:44:22.328Z,53.97
2019-02-19T03:46:52.780Z,36.93
2019-02-19T03:49:23.349Z,41.53
2019-02-19T03:51:53.738Z,38.43
2019-02-19T03:54:24.304Z,40.60
2019-02-19T03:56:55.230Z,43.20
2019-02-19T03:59:25.772Z,44.77
2019-02-19T04:01:56.540Z,48.67
2019-02-19T04:04:28.180Z,44.40
2019-02-19T04:06:58.757Z,43.43
2019-02-19T04:09:29.317Z,46.97
2019-02-19T04:11:59.735Z,55.05
2019-02-19T04:14:30.278Z,49.87
2019-02-19T04:17:00.697Z,54.07
2019-02-19T04:19:31.369Z,52.03
2019-02-19T04:22:01.851Z,51.43
2019-02-19T04:24:32.503Z,49.90
2019-02-19T04:27:03.209Z,48.80
2019-02-19T04:29:33.749Z,48.60
2019-02-19T04:32:04.633Z,52.17
2019-02-19T04:34:35.289Z,51.80
2019-02-19T04:37:05.751Z,51.13
2019-02-19T04:39:36.326Z,42.17
2019-02-19T04:42:09.670Z,46.80
2019-02-19T04:44:40.253Z,50.23
2019-02-19T04:47:14.791Z,42.60
2019-02-19T04:49:47.413Z,41.70
2019-02-19T04:52:17.758Z,52.17
2019-02-19T04:54:48.723Z,42.17
2019-02-19T04:57:19.468Z,43.80
2019-02-19T04:59:53.128Z,50.67
2019-02-19T05:02:23.658Z,46.17
2019-02-19T05:04:55.601Z,44.63
2019-02-19T05:07:26.112Z,55.97
2019-02-19T05:09:58.266Z,45.87
2019-02-19T05:12:28.701Z,56.90
2019-02-19T05:14:59.172Z,53.50
2019-02-19T05:17:30.948Z,51.93
2019-02-19T05:20:02.244Z,50.93
2019-02-19T05:22:32.667Z,68.00
2019-02-19T05:25:03.186Z,68.13
2019-02-19T05:27:34.291Z,65.70
2019-02-19T05:30:06.753Z,59.03
2019-02-19T05:32:37.121Z,60.27
2019-02-19T05:35:08.422Z,58.55
2019-02-19T05:37:38.804Z,70.73
2019-02-19T05:40:10.401Z,57.13
2019-02-19T05:42:40.899Z,59.70
2019-02-19T05:45:11.466Z,73.40
2019-02-19T05:47:41.885Z,62.87
2019-02-19T05:50:12.371Z,56.50
2019-02-19T05:52:45.103Z,57.50
2019-02-19T05:55:15.599Z,56.90
2019-02-19T05:57:46.089Z,47.77
2019-02-19T06:00:16.651Z,47.60
2019-02-19T06:02:48.851Z,45.83
2019-02-19T06:05:19.426Z,57.17
2019-02-19T06:07:49.893Z,66.87
2019-02-19T06:10:21.718Z,65.60
2019-02-19T06:12:53.208Z,61.93
2019-02-19T06:15:23.739Z,65.00
2019-02-19T06:17:57.097Z,63.30
2019-02-19T06:20:28.229Z,54.77
2019-02-19T06:22:58.823Z,60.80
2019-02-19T06:25:29.336Z,59.47
2019-02-19T06:28:00.096Z,65.53
2019-02-19T06:30:30.708Z,60.83
2019-02-19T06:33:01.176Z,59.53
2019-02-19T06:35:31.629Z,53.77
2019-02-19T06:38:04.884Z,41.10
2019-02-19T06:40:35.555Z,54.83
2019-02-19T06:43:05.973Z,51.17
2019-02-19T06:45:36.384Z,40.97
2019-02-19T06:48:08.532Z,35.00
2019-02-19T06:50:38.960Z,41.90
2019-02-19T06:53:09.414Z,49.87
2019-02-19T06:55:39.944Z,32.40
2019-02-19T06:58:10.401Z,37.17
2019-02-19T07:00:40.814Z,43.17
2019-02-19T07:03:12.839Z,44.10
2019-02-19T07:05:43.296Z,35.50
2019-02-19T07:08:13.943Z,39.43
2019-02-19T07:10:44.589Z,43.60
2019-02-19T07:13:15.025Z,34.97
2019-02-19T07:15:45.456Z,34.10
2019-02-19T07:18:15.915Z,41.40
2019-02-19T07:20:46.484Z,32.47
2019-02-19T07:23:16.958Z,29.87
2019-02-19T07:25:47.425Z,29.43
2019-02-19T07:28:17.886Z,30.23
2019-02-19T07:30:48.482Z,31.30
2019-02-19T07:33:19.138Z,34.47
2019-02-19T07:35:52.870Z,37.80
2019-02-19T07:38:23.406Z,33.77
2019-02-19T07:40:53.892Z,32.77
2019-02-19T07:43:24.274Z,31.70
2019-02-19T07:45:55.961Z,32.27
2019-02-19T07:48:26.476Z,30.77
2019-02-19T07:50:58.499Z,36.40
2019-02-19T07:53:30.410Z,30.07
2019-02-19T07:56:01.959Z,24.98
2019-02-19T07:58:33.902Z,34.70
2019-02-19T08:01:04.482Z,25.67
2019-02-19T08:03:37.681Z,21.73
2019-02-19T08:06:09.417Z,20.17
2019-02-19T08:08:41.117Z,27.57
2019-02-19T08:11:12.050Z,22.57
2019-02-19T08:13:42.463Z,21.10
2019-02-19T08:16:12.891Z,21.83
2019-02-19T08:18:43.372Z,19.80
2019-02-19T08:21:13.877Z,17.67
2019-02-19T08:23:44.343Z,21.87
2019-02-19T08:26:14.787Z,32.13
2019-02-19T08:28:45.603Z,33.70
2019-02-19T08:31:17.639Z,17.83
2019-02-19T08:33:48.068Z,18.73
2019-02-19T08:36:18.502Z,61.20
2019-02-19T08:38:49.011Z,24.40
2019-02-19T08:41:19.469Z,17.13
2019-02-19T08:43:49.917Z,16.40
2019-02-19T08:46:20.468Z,28.27
2019-02-19T08:48:50.935Z,25.70
2019-02-19T08:51:21.364Z,17.07
2019-02-19T08:53:51.856Z,18.03
2019-02-19T08:56:22.408Z,17.20
2019-02-19T08:58:52.844Z,16.45
2019-02-19T09:01:24.908Z,18.23
2019-02-19T09:03:55.364Z,23.37
2019-02-19T09:06:27.617Z,28.17
2019-02-19T09:08:58.000Z,20.57
2019-02-19T09:11:29.018Z,16.97
2019-02-19T09:14:01.028Z,22.23
2019-02-19T09:16:31.673Z,20.03
2019-02-19T09:19:03.741Z,26.03
2019-02-19T09:21:34.837Z,17.00
2019-02-19T09:24:09.471Z,18.63
2019-02-19T09:26:37.389Z,16.87
2019-02-19T09:29:07.805Z,17.73
2019-02-19T09:31:38.238Z,23.60
2019-02-19T09:34:08.621Z,14.17
2019-02-19T09:36:39.002Z,17.10
2019-02-19T09:39:09.531Z,20.03
2019-02-19T09:41:39.963Z,19.70
2019-02-19T09:44:10.415Z,36.40
2019-02-19T09:46:40.787Z,14.60
2019-02-19T09:49:11.270Z,13.20
2019-02-19T09:51:41.805Z,11.77
2019-02-19T09:54:12.257Z,14.50
2019-02-19T09:56:44.911Z,16.43
2019-02-19T09:59:25.345Z,11.97
2019-02-19T10:01:56.186Z,13.13
2019-02-19T10:04:26.578Z,12.43
2019-02-19T10:06:56.989Z,9.30
2019-02-19T10:09:27.422Z,14.70
2019-02-19T10:11:57.972Z,9.43
2019-02-19T10:14:28.410Z,13.77
2019-02-19T10:17:00.455Z,21.53
2019-02-19T10:19:30.963Z,13.47
2019-02-19T10:22:01.619Z,17.17
2019-02-19T10:24:32.162Z,7.90
2019-02-19T10:27:02.563Z,17.37
2019-02-19T10:29:33.081Z,18.40
2019-02-19T10:32:03.634Z,11.00
2019-02-19T10:34:34.097Z,8.53
2019-02-19T10:37:06.947Z,24.83
2019-02-19T10:39:37.415Z,17.07
2019-02-19T10:42:07.900Z,16.93
2019-02-19T10:44:38.450Z,17.57
2019-02-19T10:47:08.851Z,11.93
2019-02-19T10:49:39.326Z,7.80
2019-02-19T10:52:11.327Z,8.40
2019-02-19T10:54:42.016Z,10.40
2019-02-19T10:57:12.491Z,14.50
2019-02-19T10:59:42.844Z,10.87
2019-02-19T11:02:13.288Z,14.60
2019-02-19T11:04:43.974Z,11.10
2019-02-19T11:07:14.412Z,9.90
2019-02-19T11:09:44.870Z,8.83
2019-02-19T11:12:17.824Z,12.40
2019-02-19T11:14:48.200Z,11.87
2019-02-19T11:17:20.195Z,32.40
2019-02-19T11:19:50.621Z,28.73
2019-02-19T11:22:21.098Z,20.23
2019-02-19T11:24:51.590Z,14.10
2019-02-19T11:27:22.027Z,14.37
2019-02-19T11:29:52.468Z,10.80
2019-02-19T11:32:23.014Z,10.67
2019-02-19T11:34:53.483Z,14.37
2019-02-19T11:37:25.441Z,18.03
2019-02-19T11:39:55.841Z,12.57
2019-02-19T11:42:26.332Z,10.80
2019-02-19T11:44:56.738Z,18.23
2019-02-19T11:47:27.211Z,9.30
2019-02-19T11:49:57.607Z,11.10
2019-02-19T11:52:29.171Z,10.57
2019-02-19T11:54:59.540Z,7.67
2019-02-19T11:57:29.996Z,18.93
2019-02-19T12:00:00.416Z,8.87
2019-02-19T12:02:32.973Z,22.37
2019-02-19T12:05:02.945Z,15.57
2019-02-19T12:07:33.435Z,9.17
2019-02-19T12:10:06.115Z,17.90
2019-02-19T12:12:36.616Z,14.70
2019-02-19T12:15:09.729Z,12.30
2019-02-19T12:20:53.744Z,20.47
2019-02-19T12:23:24.424Z,11.63
2019-02-19T12:25:55.707Z,14.30
2019-02-19T12:34:47.354Z,19.50
2019-02-19T12:43:31.544Z,14.30
2019-02-19T14:20:12.597Z,37.37
2019-02-19T14:30:02.328Z,16.47
2019-02-19T14:32:50.997Z,24.23
2019-02-19T14:35:45.061Z,25.93
2019-02-19T14:38:28.523Z,16.70
2019-02-19T14:57:13.571Z,22.32
2019-02-19T14:59:49.704Z,19.87
2019-02-19T15:02:40.180Z,23.97
2019-02-19T15:05:27.620Z,30.57
2019-02-19T15:08:21.817Z,40.53
2019-02-19T15:11:08.471Z,50.13
2019-02-19T15:38:57.112Z,46.67
2019-02-19T15:41:33.412Z,41.87
2019-02-19T15:44:33.358Z,56.60
2019-02-19T15:47:36.113Z,66.67
2019-02-19T15:50:31.190Z,71.27
2019-02-19T16:05:02.431Z,80.33
2019-02-19T16:07:38.498Z,69.67
2019-02-19T16:10:10.592Z,62.20
2019-02-19T16:12:48.485Z,61.47
2019-02-19T16:15:23.280Z,40.87
2019-02-19T16:18:04.261Z,45.67
2019-02-19T16:54:55.469Z,88.50
2019-02-19T16:57:28.725Z,42.67
2019-02-19T17:00:12.829Z,36.77
2019-02-19T17:02:48.488Z,39.13
2019-02-19T17:05:37.190Z,40.67
2019-02-19T17:08:15.569Z,42.13
2019-02-19T17:10:51.758Z,35.03
2019-02-19T17:13:25.844Z,49.73
2019-02-19T17:16:07.247Z,44.17
2019-02-19T17:30:52.420Z,47.80
2019-02-19T17:33:38.819Z,67.73
2019-02-19T17:36:25.109Z,48.47
2019-02-19T17:39:17.575Z,44.37
2019-02-19T17:41:53.213Z,50.13
2019-02-19T17:44:28.420Z,57.33
2019-02-19T17:47:00.593Z,56.67
2019-02-19T17:49:43.193Z,52.37
2019-02-19T17:52:34.076Z,50.65
2019-02-19T17:55:37.947Z,47.27
2019-02-19T17:58:26.105Z,40.13
2019-02-19T18:01:14.709Z,39.60
2019-02-19T18:03:48.637Z,34.57
2019-02-19T18:06:23.573Z,36.43
2019-02-19T18:09:11.784Z,43.37
2019-02-19T18:11:43.878Z,48.17
2019-02-19T18:14:19.145Z,42.20
2019-02-19T18:16:57.118Z,36.90
2019-02-19T18:19:27.600Z,38.03
2019-02-19T18:22:00.934Z,47.00
2019-02-19T18:24:31.454Z,46.50
2019-02-19T18:27:55.213Z,50.33
2019-02-19T18:30:26.913Z,45.17
2019-02-19T18:32:57.600Z,44.03
2019-02-19T18:35:28.350Z,41.47
2019-02-19T18:37:58.979Z,46.83
2019-02-19T18:40:35.059Z,55.70
2019-02-19T18:43:05.544Z,40.43
2019-02-19T18:45:36.077Z,47.70
2019-02-19T18:48:08.083Z,50.23
2019-02-19T18:50:40.337Z,54.33
2019-02-19T18:53:12.503Z,47.90
2019-02-19T18:55:43.262Z,44.80
2019-02-19T18:58:13.846Z,42.80
2019-02-19T19:00:48.136Z,39.27
2019-02-19T19:03:26.737Z,39.37
2019-02-19T19:05:57.417Z,37.23
2019-02-19T19:08:49.373Z,33.77
2019-02-19T19:11:22.066Z,33.70
2019-02-19T19:13:54.257Z,34.70
2019-02-19T19:16:33.636Z,34.63
2019-02-19T19:22:05.213Z,47.03
2019-02-19T19:24:35.875Z,43.73
2019-02-19T19:27:07.454Z,44.40
2019-02-19T19:29:37.937Z,43.57
2019-02-19T19:32:08.422Z,40.17
2019-02-19T19:34:39.905Z,42.37
2019-02-19T19:37:12.131Z,32.13
2019-02-19T19:39:42.647Z,40.90
2019-02-19T19:42:15.871Z,34.40
2019-02-19T19:44:52.144Z,36.60
2019-02-19T19:47:22.620Z,37.47
2019-02-19T19:49:53.196Z,28.13
2019-02-19T19:52:23.849Z,24.17
2019-02-19T19:54:54.479Z,34.50
2019-02-19T19:57:25.400Z,32.10
2019-02-19T19:59:55.949Z,34.10
2019-02-19T20:02:26.663Z,43.47
2019-02-19T20:04:57.213Z,35.20
2019-02-19T20:07:30.594Z,23.47
2019-02-19T20:10:06.777Z,38.10
2019-02-19T20:12:39.750Z,43.63
2019-02-19T20:15:12.116Z,38.00
2019-02-19T20:17:42.572Z,34.77
2019-02-19T20:20:13.895Z,20.17
2019-02-19T20:22:48.363Z,22.60
2019-02-19T20:25:18.843Z,21.23
2019-02-19T20:27:49.583Z,24.47
2019-02-19T20:30:20.345Z,18.17
2019-02-19T20:32:50.841Z,20.37
2019-02-19T20:35:22.793Z,18.47
2019-02-19T20:40:54.349Z,27.77
2019-02-19T20:43:24.785Z,32.30
2019-02-19T20:45:55.214Z,29.33
2019-02-19T20:48:25.829Z,34.07
2019-02-19T20:50:56.424Z,34.10
2019-02-19T20:53:30.062Z,37.00
2019-02-19T20:56:02.466Z,36.10
2019-02-19T20:58:34.000Z,33.40
2019-02-19T21:01:05.002Z,31.20
2019-02-19T21:03:37.054Z,37.60
2019-02-19T21:06:07.460Z,34.47
2019-02-19T21:08:38.470Z,32.93
2019-02-19T21:11:10.740Z,27.67
2019-02-19T21:13:41.188Z,29.42
2019-02-19T21:16:11.642Z,23.40
2019-02-19T21:18:42.257Z,23.10
2019-02-19T21:21:12.715Z,28.03
2019-02-19T21:23:43.244Z,22.23
2019-02-19T21:26:13.676Z,21.63
2019-02-19T21:28:44.130Z,23.90
2019-02-19T21:31:14.558Z,33.20
2019-02-19T21:33:46.470Z,24.40
2019-02-19T21:36:17.888Z,31.40
2019-02-19T21:38:48.726Z,30.93
2019-02-19T21:41:21.541Z,35.63
2019-02-19T21:43:51.936Z,34.70
2019-02-19T21:46:22.462Z,28.97
2019-02-19T21:48:52.884Z,26.10
2019-02-19T21:51:23.326Z,33.23
2019-02-19T21:53:53.853Z,32.37
2019-02-19T21:56:24.320Z,26.83
2019-02-19T21:58:55.466Z,25.37
2019-02-19T22:01:25.893Z,32.97
2019-02-19T22:03:56.371Z,30.47
2019-02-19T22:06:26.842Z,30.73
2019-02-19T22:08:57.450Z,28.93
2019-02-19T22:11:27.887Z,26.07
2019-02-19T22:13:58.382Z,18.30
2019-02-19T22:16:28.827Z,26.47
2019-02-19T22:18:59.339Z,23.30
2019-02-19T22:21:31.649Z,22.37
2019-02-19T22:24:02.393Z,22.93
2019-02-19T22:26:35.585Z,24.37
2019-02-19T22:29:06.096Z,21.97
2019-02-19T22:31:36.508Z,23.37
2019-02-19T22:36:42.974Z,24.70
2019-02-19T22:39:16.644Z,23.57
2019-02-19T22:41:47.171Z,23.97
2019-02-19T22:44:17.639Z,24.77
2019-02-19T22:46:48.175Z,22.13
2019-02-19T22:49:18.576Z,19.20
2019-02-19T22:51:49.097Z,24.73
2019-02-19T22:54:26.897Z,21.97
2019-02-19T22:56:57.394Z,23.67
2019-02-19T22:59:27.958Z,17.23
2019-02-19T23:01:59.955Z,16.93
2019-02-19T23:04:31.501Z,19.27
2019-02-19T23:07:01.923Z,14.57
2019-02-19T23:09:32.417Z,15.77
2019-02-19T23:12:02.821Z,14.43
2019-02-19T23:14:33.300Z,16.37
2019-02-19T23:17:03.759Z,17.33
2019-02-19T23:19:34.147Z,14.87
2019-02-19T23:22:04.576Z,23.40
2019-02-19T23:24:35.006Z,21.43
2019-02-19T23:27:05.512Z,25.77
2019-02-19T23:29:35.962Z,17.13
2019-02-19T23:32:06.322Z,20.50
2019-02-19T23:34:36.818Z,15.80
2019-02-19T23:37:07.267Z,22.37
2019-02-19T23:39:43.551Z,18.73
2019-02-19T23:42:09.793Z,28.03
2019-02-19T23:44:40.296Z,24.43
2019-02-19T23:47:10.688Z,27.27
2019-02-19T23:49:41.958Z,20.33
2019-02-19T23:52:12.381Z,16.80
2019-02-19T23:54:42.877Z,20.62
2019-02-19T23:57:13.298Z,20.53
2019-02-19T23:59:44.294Z,20.63
